sensor_id;sensor_type;location;lat;lon;timestamp;P1;durP1;ratioP1;P2;durP2;ratioP2
4409;SDS011;2218;51.408;7.208;2022-12-07T00:01:41;0.83;;;0.80;;
4409;SDS011;2218;51.408;7.208;2022-12-07T00:04:12;0.70;;;0.70;;
4409;SDS011;2218;51.408;7.208;2022-12-07T00:06:42;0.70;;;0.60;;
4409;SDS011;2218;51.408;7.208;2022-12-07T00:09:11;0.70;;;0.67;;
4409;SDS011;2218;51.408;7.208;2022-12-07T00:11:40;0.80;;;0.73;;
4409;SDS011;2218;51.408;7.208;2022-12-07T00:14:09;1.10;;;1.00;;
4409;SDS011;2218;51.408;7.208;2022-12-07T00:16:39;1.00;;;0.90;;
4409;SDS011;2218;51.408;7.208;2022-12-07T00:19:06;0.80;;;0.80;;
4409;SDS011;2218;51.408;7.208;2022-12-07T00:21:35;0.90;;;0.90;;
4409;SDS011;2218;51.408;7.208;2022-12-07T00:24:02;0.77;;;0.70;;
4409;SDS011;2218;51.408;7.208;2022-12-07T00:26:32;0.80;;;0.70;;
4409;SDS011;2218;51.408;7.208;2022-12-07T00:29:04;0.80;;;0.80;;
4409;SDS011;2218;51.408;7.208;2022-12-07T00:31:34;0.90;;;0.90;;
4409;SDS011;2218;51.408;7.208;2022-12-07T00:34:04;1.00;;;0.90;;
4409;SDS011;2218;51.408;7.208;2022-12-07T00:36:31;1.00;;;0.80;;
4409;SDS011;2218;51.408;7.208;2022-12-07T00:39:00;0.80;;;0.77;;
4409;SDS011;2218;51.408;7.208;2022-12-07T00:41:28;0.90;;;0.90;;
4409;SDS011;2218;51.408;7.208;2022-12-07T00:43:56;1.27;;;1.17;;
4409;SDS011;2218;51.408;7.208;2022-12-07T00:46:23;0.90;;;0.90;;
4409;SDS011;2218;51.408;7.208;2022-12-07T00:48:52;0.80;;;0.80;;
4409;SDS011;2218;51.408;7.208;2022-12-07T00:51:20;1.17;;;1.07;;
4409;SDS011;2218;51.408;7.208;2022-12-07T00:53:49;0.90;;;0.90;;
4409;SDS011;2218;51.408;7.208;2022-12-07T00:56:20;0.93;;;0.93;;
4409;SDS011;2218;51.408;7.208;2022-12-07T00:58:49;0.80;;;0.80;;
4409;SDS011;2218;51.408;7.208;2022-12-07T01:01:18;0.97;;;0.87;;
4409;SDS011;2218;51.408;7.208;2022-12-07T01:03:45;0.80;;;0.80;;
4409;SDS011;2218;51.408;7.208;2022-12-07T01:06:14;0.90;;;0.90;;
4409;SDS011;2218;51.408;7.208;2022-12-07T01:08:42;0.90;;;0.90;;
4409;SDS011;2218;51.408;7.208;2022-12-07T01:11:12;0.90;;;0.90;;
4409;SDS011;2218;51.408;7.208;2022-12-07T01:13:43;0.80;;;0.80;;
4409;SDS011;2218;51.408;7.208;2022-12-07T01:16:11;0.70;;;0.67;;
4409;SDS011;2218;51.408;7.208;2022-12-07T01:18:41;0.90;;;0.90;;
4409;SDS011;2218;51.408;7.208;2022-12-07T01:21:12;1.20;;;1.10;;
4409;SDS011;2218;51.408;7.208;2022-12-07T01:23:42;0.90;;;0.90;;
4409;SDS011;2218;51.408;7.208;2022-12-07T01:26:10;1.00;;;1.00;;
4409;SDS011;2218;51.408;7.208;2022-12-07T01:28:40;0.90;;;0.90;;
4409;SDS011;2218;51.408;7.208;2022-12-07T01:31:11;0.93;;;0.93;;
4409;SDS011;2218;51.408;7.208;2022-12-07T01:33:41;1.13;;;1.10;;
4409;SDS011;2218;51.408;7.208;2022-12-07T01:36:13;0.73;;;0.70;;
4409;SDS011;2218;51.408;7.208;2022-12-07T01:38:41;1.00;;;0.90;;
4409;SDS011;2218;51.408;7.208;2022-12-07T01:41:09;0.80;;;0.80;;
4409;SDS011;2218;51.408;7.208;2022-12-07T01:46:43;0.93;;;0.93;;
4409;SDS011;2218;51.408;7.208;2022-12-07T01:49:12;1.13;;;1.03;;
4409;SDS011;2218;51.408;7.208;2022-12-07T01:51:47;1.10;;;0.90;;
4409;SDS011;2218;51.408;7.208;2022-12-07T01:54:18;1.20;;;1.10;;
4409;SDS011;2218;51.408;7.208;2022-12-07T01:56:49;0.90;;;0.90;;
4409;SDS011;2218;51.408;7.208;2022-12-07T01:59:21;0.90;;;0.90;;
4409;SDS011;2218;51.408;7.208;2022-12-07T02:01:51;0.90;;;0.90;;
4409;SDS011;2218;51.408;7.208;2022-12-07T02:04:21;0.80;;;0.80;;
4409;SDS011;2218;51.408;7.208;2022-12-07T02:06:48;0.90;;;0.90;;
4409;SDS011;2218;51.408;7.208;2022-12-07T02:09:17;0.80;;;0.80;;
4409;SDS011;2218;51.408;7.208;2022-12-07T02:11:44;1.10;;;1.10;;
4409;SDS011;2218;51.408;7.208;2022-12-07T02:14:11;1.23;;;1.13;;
4409;SDS011;2218;51.408;7.208;2022-12-07T02:16:42;0.93;;;0.90;;
4409;SDS011;2218;51.408;7.208;2022-12-07T02:25:52;0.90;;;0.90;;
4409;SDS011;2218;51.408;7.208;2022-12-07T02:28:47;0.90;;;0.90;;
4409;SDS011;2218;51.408;7.208;2022-12-07T02:31:41;0.80;;;0.80;;
4409;SDS011;2218;51.408;7.208;2022-12-07T02:34:18;0.90;;;0.90;;
4409;SDS011;2218;51.408;7.208;2022-12-07T02:36:54;1.20;;;1.10;;
4409;SDS011;2218;51.408;7.208;2022-12-07T02:39:28;1.23;;;1.13;;
4409;SDS011;2218;51.408;7.208;2022-12-07T02:42:07;1.10;;;1.10;;
4409;SDS011;2218;51.408;7.208;2022-12-07T02:44:43;1.30;;;1.20;;
4409;SDS011;2218;51.408;7.208;2022-12-07T02:47:13;1.00;;;1.00;;
4409;SDS011;2218;51.408;7.208;2022-12-07T02:49:44;1.23;;;1.13;;
4409;SDS011;2218;51.408;7.208;2022-12-07T02:52:12;1.30;;;1.20;;
4409;SDS011;2218;51.408;7.208;2022-12-07T02:54:39;1.23;;;1.13;;
4409;SDS011;2218;51.408;7.208;2022-12-07T02:57:10;1.23;;;1.13;;
4409;SDS011;2218;51.408;7.208;2022-12-07T03:00:00;1.00;;;1.00;;
4409;SDS011;2218;51.408;7.208;2022-12-07T03:02:35;1.00;;;0.80;;
4409;SDS011;2218;51.408;7.208;2022-12-07T03:05:21;1.03;;;1.03;;
4409;SDS011;2218;51.408;7.208;2022-12-07T03:08:17;1.33;;;1.23;;
4409;SDS011;2218;51.408;7.208;2022-12-07T03:10:56;1.20;;;1.10;;
4409;SDS011;2218;51.408;7.208;2022-12-07T03:13:30;1.27;;;1.17;;
4409;SDS011;2218;51.408;7.208;2022-12-07T03:16:07;0.93;;;0.90;;
4409;SDS011;2218;51.408;7.208;2022-12-07T03:18:42;1.17;;;1.10;;
4409;SDS011;2218;51.408;7.208;2022-12-07T03:21:17;1.20;;;1.10;;
4409;SDS011;2218;51.408;7.208;2022-12-07T03:23:49;1.00;;;1.00;;
4409;SDS011;2218;51.408;7.208;2022-12-07T03:26:21;0.90;;;0.90;;
4409;SDS011;2218;51.408;7.208;2022-12-07T03:28:59;1.37;;;1.00;;
4409;SDS011;2218;51.408;7.208;2022-12-07T03:31:35;0.90;;;0.90;;
4409;SDS011;2218;51.408;7.208;2022-12-07T03:34:10;1.00;;;1.00;;
4409;SDS011;2218;51.408;7.208;2022-12-07T03:36:43;1.00;;;0.90;;
4409;SDS011;2218;51.408;7.208;2022-12-07T03:39:17;0.93;;;0.93;;
4409;SDS011;2218;51.408;7.208;2022-12-07T03:41:52;0.90;;;0.90;;
4409;SDS011;2218;51.408;7.208;2022-12-07T03:44:20;1.03;;;1.00;;
4409;SDS011;2218;51.408;7.208;2022-12-07T03:46:52;0.90;;;0.90;;
4409;SDS011;2218;51.408;7.208;2022-12-07T03:49:30;1.10;;;1.00;;
4409;SDS011;2218;51.408;7.208;2022-12-07T03:52:12;1.20;;;1.10;;
4409;SDS011;2218;51.408;7.208;2022-12-07T03:54:49;0.90;;;0.90;;
4409;SDS011;2218;51.408;7.208;2022-12-07T03:57:24;0.83;;;0.83;;
4409;SDS011;2218;51.408;7.208;2022-12-07T03:59:54;0.90;;;0.90;;
4409;SDS011;2218;51.408;7.208;2022-12-07T04:02:25;1.37;;;1.27;;
4409;SDS011;2218;51.408;7.208;2022-12-07T04:04:54;1.10;;;1.00;;
4409;SDS011;2218;51.408;7.208;2022-12-07T04:07:22;1.10;;;1.00;;
4409;SDS011;2218;51.408;7.208;2022-12-07T04:09:49;1.30;;;1.20;;
4409;SDS011;2218;51.408;7.208;2022-12-07T04:12:16;1.00;;;0.90;;
4409;SDS011;2218;51.408;7.208;2022-12-07T04:14:43;1.10;;;1.00;;
4409;SDS011;2218;51.408;7.208;2022-12-07T04:17:10;1.00;;;1.00;;
4409;SDS011;2218;51.408;7.208;2022-12-07T04:19:39;0.90;;;0.90;;
4409;SDS011;2218;51.408;7.208;2022-12-07T04:22:06;0.97;;;0.90;;
4409;SDS011;2218;51.408;7.208;2022-12-07T04:24:33;1.00;;;0.90;;
4409;SDS011;2218;51.408;7.208;2022-12-07T04:27:01;1.00;;;0.90;;
4409;SDS011;2218;51.408;7.208;2022-12-07T04:29:29;1.10;;;1.10;;
4409;SDS011;2218;51.408;7.208;2022-12-07T04:31:56;0.90;;;0.90;;
4409;SDS011;2218;51.408;7.208;2022-12-07T04:34:23;1.20;;;1.10;;
4409;SDS011;2218;51.408;7.208;2022-12-07T04:36:51;1.20;;;1.10;;
4409;SDS011;2218;51.408;7.208;2022-12-07T04:39:19;1.20;;;1.10;;
4409;SDS011;2218;51.408;7.208;2022-12-07T04:41:49;1.43;;;1.00;;
4409;SDS011;2218;51.408;7.208;2022-12-07T04:44:17;1.27;;;1.17;;
4409;SDS011;2218;51.408;7.208;2022-12-07T04:46:45;0.93;;;0.90;;
4409;SDS011;2218;51.408;7.208;2022-12-07T04:49:12;0.90;;;0.90;;
4409;SDS011;2218;51.408;7.208;2022-12-07T04:51:40;0.90;;;0.77;;
4409;SDS011;2218;51.408;7.208;2022-12-07T04:54:10;1.07;;;0.97;;
4409;SDS011;2218;51.408;7.208;2022-12-07T04:56:37;1.20;;;1.10;;
4409;SDS011;2218;51.408;7.208;2022-12-07T04:59:05;1.23;;;1.13;;
4409;SDS011;2218;51.408;7.208;2022-12-07T05:01:32;1.10;;;1.00;;
4409;SDS011;2218;51.408;7.208;2022-12-07T05:03:59;1.00;;;0.90;;
4409;SDS011;2218;51.408;7.208;2022-12-07T05:06:26;1.00;;;1.00;;
4409;SDS011;2218;51.408;7.208;2022-12-07T05:08:53;1.00;;;1.00;;
4409;SDS011;2218;51.408;7.208;2022-12-07T05:11:21;1.40;;;1.30;;
4409;SDS011;2218;51.408;7.208;2022-12-07T05:14:08;0.93;;;0.93;;
4409;SDS011;2218;51.408;7.208;2022-12-07T05:16:38;1.37;;;1.27;;
4409;SDS011;2218;51.408;7.208;2022-12-07T05:19:07;0.87;;;0.87;;
4409;SDS011;2218;51.408;7.208;2022-12-07T05:21:35;1.03;;;0.93;;
4409;SDS011;2218;51.408;7.208;2022-12-07T05:24:03;1.37;;;1.27;;
4409;SDS011;2218;51.408;7.208;2022-12-07T05:26:33;0.90;;;0.90;;
4409;SDS011;2218;51.408;7.208;2022-12-07T05:29:00;1.20;;;1.10;;
4409;SDS011;2218;51.408;7.208;2022-12-07T05:31:27;1.07;;;1.00;;
4409;SDS011;2218;51.408;7.208;2022-12-07T05:33:54;1.03;;;0.97;;
4409;SDS011;2218;51.408;7.208;2022-12-07T05:36:21;1.00;;;1.00;;
4409;SDS011;2218;51.408;7.208;2022-12-07T05:38:48;1.50;;;0.90;;
4409;SDS011;2218;51.408;7.208;2022-12-07T05:41:16;1.13;;;1.00;;
4409;SDS011;2218;51.408;7.208;2022-12-07T05:44:04;1.00;;;1.00;;
4409;SDS011;2218;51.408;7.208;2022-12-07T05:46:31;1.10;;;1.00;;
4409;SDS011;2218;51.408;7.208;2022-12-07T05:48:59;0.80;;;0.80;;
4409;SDS011;2218;51.408;7.208;2022-12-07T05:51:27;0.90;;;0.90;;
4409;SDS011;2218;51.408;7.208;2022-12-07T05:53:54;1.00;;;0.90;;
4409;SDS011;2218;51.408;7.208;2022-12-07T05:56:21;1.00;;;1.00;;
4409;SDS011;2218;51.408;7.208;2022-12-07T05:58:49;1.20;;;1.10;;
4409;SDS011;2218;51.408;7.208;2022-12-07T06:01:35;0.90;;;0.90;;
4409;SDS011;2218;51.408;7.208;2022-12-07T06:04:01;1.07;;;0.80;;
4409;SDS011;2218;51.408;7.208;2022-12-07T06:06:28;1.23;;;1.13;;
4409;SDS011;2218;51.408;7.208;2022-12-07T06:08:55;1.10;;;1.00;;
4409;SDS011;2218;51.408;7.208;2022-12-07T06:11:22;0.90;;;0.80;;
4409;SDS011;2218;51.408;7.208;2022-12-07T06:14:07;1.20;;;1.10;;
4409;SDS011;2218;51.408;7.208;2022-12-07T06:16:35;1.10;;;1.00;;
4409;SDS011;2218;51.408;7.208;2022-12-07T06:19:02;0.80;;;0.80;;
4409;SDS011;2218;51.408;7.208;2022-12-07T06:21:29;1.10;;;1.00;;
4409;SDS011;2218;51.408;7.208;2022-12-07T06:23:56;1.00;;;0.90;;
4409;SDS011;2218;51.408;7.208;2022-12-07T06:26:23;1.03;;;0.93;;
4409;SDS011;2218;51.408;7.208;2022-12-07T06:28:50;1.00;;;1.00;;
4409;SDS011;2218;51.408;7.208;2022-12-07T06:31:17;1.30;;;1.20;;
4409;SDS011;2218;51.408;7.208;2022-12-07T06:33:45;1.10;;;1.00;;
4409;SDS011;2218;51.408;7.208;2022-12-07T06:36:12;1.10;;;1.00;;
4409;SDS011;2218;51.408;7.208;2022-12-07T06:38:39;1.03;;;0.90;;
4409;SDS011;2218;51.408;7.208;2022-12-07T06:41:06;1.10;;;1.10;;
4409;SDS011;2218;51.408;7.208;2022-12-07T06:43:33;1.23;;;1.13;;
4409;SDS011;2218;51.408;7.208;2022-12-07T06:46:00;1.17;;;1.07;;
4409;SDS011;2218;51.408;7.208;2022-12-07T06:48:27;1.07;;;0.97;;
4409;SDS011;2218;51.408;7.208;2022-12-07T06:50:56;1.17;;;0.93;;
4409;SDS011;2218;51.408;7.208;2022-12-07T06:53:22;0.87;;;0.87;;
4409;SDS011;2218;51.408;7.208;2022-12-07T06:55:49;0.80;;;0.80;;
4409;SDS011;2218;51.408;7.208;2022-12-07T06:58:17;0.90;;;0.90;;
4409;SDS011;2218;51.408;7.208;2022-12-07T07:00:44;1.30;;;1.20;;
4409;SDS011;2218;51.408;7.208;2022-12-07T07:03:13;1.20;;;1.10;;
4409;SDS011;2218;51.408;7.208;2022-12-07T07:05:40;0.90;;;0.80;;
4409;SDS011;2218;51.408;7.208;2022-12-07T07:08:09;1.00;;;0.90;;
4409;SDS011;2218;51.408;7.208;2022-12-07T07:10:37;0.90;;;0.90;;
4409;SDS011;2218;51.408;7.208;2022-12-07T07:13:04;1.10;;;1.00;;
4409;SDS011;2218;51.408;7.208;2022-12-07T07:15:32;0.80;;;0.80;;
4409;SDS011;2218;51.408;7.208;2022-12-07T07:18:00;0.90;;;0.83;;
4409;SDS011;2218;51.408;7.208;2022-12-07T07:20:28;0.80;;;0.80;;
4409;SDS011;2218;51.408;7.208;2022-12-07T07:22:56;0.80;;;0.80;;
4409;SDS011;2218;51.408;7.208;2022-12-07T07:25:24;1.20;;;1.10;;
4409;SDS011;2218;51.408;7.208;2022-12-07T07:27:51;0.77;;;0.77;;
4409;SDS011;2218;51.408;7.208;2022-12-07T07:30:18;1.20;;;0.90;;
4409;SDS011;2218;51.408;7.208;2022-12-07T07:32:45;1.03;;;1.03;;
4409;SDS011;2218;51.408;7.208;2022-12-07T07:35:12;0.70;;;0.70;;
4409;SDS011;2218;51.408;7.208;2022-12-07T07:37:39;0.80;;;0.73;;
4409;SDS011;2218;51.408;7.208;2022-12-07T07:40:06;1.40;;;1.10;;
4409;SDS011;2218;51.408;7.208;2022-12-07T07:42:36;1.23;;;1.13;;
4409;SDS011;2218;51.408;7.208;2022-12-07T07:45:03;1.73;;;1.63;;
4409;SDS011;2218;51.408;7.208;2022-12-07T07:47:31;1.57;;;1.47;;
4409;SDS011;2218;51.408;7.208;2022-12-07T07:49:58;5.10;;;1.60;;
4409;SDS011;2218;51.408;7.208;2022-12-07T07:52:25;2.80;;;1.80;;
4409;SDS011;2218;51.408;7.208;2022-12-07T07:54:52;1.87;;;1.60;;
4409;SDS011;2218;51.408;7.208;2022-12-07T07:57:19;9.00;;;1.67;;
4409;SDS011;2218;51.408;7.208;2022-12-07T07:59:47;3.20;;;1.80;;
4409;SDS011;2218;51.408;7.208;2022-12-07T08:02:15;1.97;;;1.87;;
4409;SDS011;2218;51.408;7.208;2022-12-07T08:04:45;2.10;;;1.50;;
4409;SDS011;2218;51.408;7.208;2022-12-07T08:07:12;3.97;;;1.70;;
4409;SDS011;2218;51.408;7.208;2022-12-07T08:09:41;1.83;;;1.33;;
4409;SDS011;2218;51.408;7.208;2022-12-07T08:12:08;1.93;;;1.70;;
4409;SDS011;2218;51.408;7.208;2022-12-07T08:14:35;1.53;;;1.43;;
4409;SDS011;2218;51.408;7.208;2022-12-07T08:17:03;3.00;;;1.80;;
4409;SDS011;2218;51.408;7.208;2022-12-07T08:19:30;2.13;;;1.43;;
4409;SDS011;2218;51.408;7.208;2022-12-07T08:21:57;4.00;;;1.70;;
4409;SDS011;2218;51.408;7.208;2022-12-07T08:24:24;1.60;;;1.50;;
4409;SDS011;2218;51.408;7.208;2022-12-07T08:26:51;5.07;;;1.47;;
4409;SDS011;2218;51.408;7.208;2022-12-07T08:29:18;2.23;;;1.57;;
4409;SDS011;2218;51.408;7.208;2022-12-07T08:31:45;2.30;;;1.40;;
4409;SDS011;2218;51.408;7.208;2022-12-07T08:34:14;1.50;;;1.40;;
4409;SDS011;2218;51.408;7.208;2022-12-07T08:36:41;1.80;;;1.70;;
4409;SDS011;2218;51.408;7.208;2022-12-07T08:39:08;2.07;;;1.87;;
4409;SDS011;2218;51.408;7.208;2022-12-07T08:41:35;2.27;;;1.60;;
4409;SDS011;2218;51.408;7.208;2022-12-07T08:44:02;1.83;;;1.37;;
4409;SDS011;2218;51.408;7.208;2022-12-07T08:46:30;1.60;;;1.50;;
4409;SDS011;2218;51.408;7.208;2022-12-07T08:49:03;1.60;;;1.40;;
4409;SDS011;2218;51.408;7.208;2022-12-07T08:51:36;7.70;;;1.30;;
4409;SDS011;2218;51.408;7.208;2022-12-07T08:54:06;1.40;;;1.30;;
4409;SDS011;2218;51.408;7.208;2022-12-07T08:56:39;7.23;;;2.03;;
4409;SDS011;2218;51.408;7.208;2022-12-07T08:59:07;1.60;;;1.50;;
4409;SDS011;2218;51.408;7.208;2022-12-07T09:01:35;4.57;;;1.80;;
4409;SDS011;2218;51.408;7.208;2022-12-07T09:04:02;3.57;;;1.33;;
4409;SDS011;2218;51.408;7.208;2022-12-07T09:06:29;5.50;;;1.60;;
4409;SDS011;2218;51.408;7.208;2022-12-07T09:08:57;1.77;;;1.67;;
4409;SDS011;2218;51.408;7.208;2022-12-07T09:11:27;1.43;;;1.20;;
4409;SDS011;2218;51.408;7.208;2022-12-07T09:13:55;3.00;;;1.50;;
4409;SDS011;2218;51.408;7.208;2022-12-07T09:16:22;3.23;;;1.77;;
4409;SDS011;2218;51.408;7.208;2022-12-07T09:18:49;1.73;;;1.30;;
4409;SDS011;2218;51.408;7.208;2022-12-07T09:21:16;1.50;;;1.10;;
4409;SDS011;2218;51.408;7.208;2022-12-07T09:23:43;1.97;;;1.40;;
4409;SDS011;2218;51.408;7.208;2022-12-07T09:26:11;1.40;;;1.27;;
4409;SDS011;2218;51.408;7.208;2022-12-07T09:28:38;4.87;;;1.50;;
4409;SDS011;2218;51.408;7.208;2022-12-07T09:31:05;3.53;;;1.30;;
4409;SDS011;2218;51.408;7.208;2022-12-07T09:33:32;5.40;;;1.37;;
4409;SDS011;2218;51.408;7.208;2022-12-07T09:35:59;2.50;;;1.13;;
4409;SDS011;2218;51.408;7.208;2022-12-07T09:38:27;3.30;;;1.77;;
4409;SDS011;2218;51.408;7.208;2022-12-07T09:40:54;2.33;;;1.50;;
4409;SDS011;2218;51.408;7.208;2022-12-07T09:43:24;1.33;;;1.20;;
4409;SDS011;2218;51.408;7.208;2022-12-07T09:45:53;1.53;;;1.43;;
4409;SDS011;2218;51.408;7.208;2022-12-07T09:48:23;1.53;;;1.33;;
4409;SDS011;2218;51.408;7.208;2022-12-07T09:50:57;2.70;;;1.40;;
4409;SDS011;2218;51.408;7.208;2022-12-07T09:53:29;1.93;;;1.13;;
4409;SDS011;2218;51.408;7.208;2022-12-07T09:56:01;2.07;;;1.30;;
4409;SDS011;2218;51.408;7.208;2022-12-07T09:58:30;2.40;;;1.43;;
4409;SDS011;2218;51.408;7.208;2022-12-07T10:01:00;1.73;;;1.50;;
4409;SDS011;2218;51.408;7.208;2022-12-07T10:03:39;2.20;;;1.20;;
4409;SDS011;2218;51.408;7.208;2022-12-07T10:06:20;1.93;;;1.40;;
4409;SDS011;2218;51.408;7.208;2022-12-07T10:08:47;2.97;;;1.20;;
4409;SDS011;2218;51.408;7.208;2022-12-07T10:11:15;1.80;;;1.33;;
4409;SDS011;2218;51.408;7.208;2022-12-07T10:13:44;1.37;;;1.10;;
4409;SDS011;2218;51.408;7.208;2022-12-07T10:16:27;1.67;;;1.00;;
4409;SDS011;2218;51.408;7.208;2022-12-07T10:19:22;1.10;;;1.00;;
4409;SDS011;2218;51.408;7.208;2022-12-07T10:24:43;1.83;;;1.40;;
4409;SDS011;2218;51.408;7.208;2022-12-07T10:27:17;2.40;;;1.20;;
4409;SDS011;2218;51.408;7.208;2022-12-07T10:29:49;2.40;;;1.40;;
4409;SDS011;2218;51.408;7.208;2022-12-07T10:32:26;11.73;;;1.10;;
4409;SDS011;2218;51.408;7.208;2022-12-07T10:35:18;1.57;;;1.10;;
4409;SDS011;2218;51.408;7.208;2022-12-07T10:37:49;2.47;;;1.20;;
4409;SDS011;2218;51.408;7.208;2022-12-07T10:40:25;2.97;;;1.00;;
4409;SDS011;2218;51.408;7.208;2022-12-07T10:43:03;2.10;;;1.17;;
4409;SDS011;2218;51.408;7.208;2022-12-07T10:45:44;2.80;;;1.10;;
4409;SDS011;2218;51.408;7.208;2022-12-07T10:48:55;1.53;;;1.00;;
4409;SDS011;2218;51.408;7.208;2022-12-07T10:51:35;2.53;;;1.30;;
4409;SDS011;2218;51.408;7.208;2022-12-07T10:54:13;1.10;;;1.00;;
4409;SDS011;2218;51.408;7.208;2022-12-07T10:56:57;3.17;;;1.27;;
4409;SDS011;2218;51.408;7.208;2022-12-07T10:59:50;1.00;;;0.90;;
4409;SDS011;2218;51.408;7.208;2022-12-07T11:02:39;1.70;;;1.30;;
4409;SDS011;2218;51.408;7.208;2022-12-07T11:05:33;1.10;;;0.90;;
4409;SDS011;2218;51.408;7.208;2022-12-07T11:08:13;1.80;;;1.17;;
4409;SDS011;2218;51.408;7.208;2022-12-07T11:10:52;4.40;;;1.10;;
4409;SDS011;2218;51.408;7.208;2022-12-07T11:13:29;1.20;;;1.00;;
4409;SDS011;2218;51.408;7.208;2022-12-07T11:19:17;1.17;;;0.90;;
4409;SDS011;2218;51.408;7.208;2022-12-07T11:22:01;1.20;;;1.10;;
4409;SDS011;2218;51.408;7.208;2022-12-07T11:24:36;3.23;;;1.00;;
4409;SDS011;2218;51.408;7.208;2022-12-07T11:27:18;1.73;;;1.13;;
4409;SDS011;2218;51.408;7.208;2022-12-07T11:29:59;1.23;;;0.80;;
4409;SDS011;2218;51.408;7.208;2022-12-07T11:35:45;3.83;;;0.80;;
4409;SDS011;2218;51.408;7.208;2022-12-07T11:38:30;3.13;;;0.97;;
4409;SDS011;2218;51.408;7.208;2022-12-07T11:41:11;3.60;;;0.70;;
4409;SDS011;2218;51.408;7.208;2022-12-07T11:43:49;1.97;;;0.70;;
4409;SDS011;2218;51.408;7.208;2022-12-07T11:46:23;5.90;;;0.90;;
4409;SDS011;2218;51.408;7.208;2022-12-07T11:48:55;0.97;;;0.80;;
4409;SDS011;2218;51.408;7.208;2022-12-07T11:51:35;4.80;;;1.00;;
4409;SDS011;2218;51.408;7.208;2022-12-07T11:54:11;2.20;;;0.80;;
4409;SDS011;2218;51.408;7.208;2022-12-07T11:56:44;1.10;;;1.00;;
4409;SDS011;2218;51.408;7.208;2022-12-07T11:59:16;2.50;;;1.10;;
4409;SDS011;2218;51.408;7.208;2022-12-07T12:01:53;1.20;;;0.80;;
4409;SDS011;2218;51.408;7.208;2022-12-07T12:04:31;3.07;;;0.83;;
4409;SDS011;2218;51.408;7.208;2022-12-07T12:07:17;1.23;;;0.80;;
4409;SDS011;2218;51.408;7.208;2022-12-07T12:09:49;1.30;;;1.03;;
4409;SDS011;2218;51.408;7.208;2022-12-07T12:12:24;1.20;;;0.93;;
4409;SDS011;2218;51.408;7.208;2022-12-07T12:15:30;0.80;;;0.80;;
4409;SDS011;2218;51.408;7.208;2022-12-07T12:18:25;3.23;;;1.00;;
4409;SDS011;2218;51.408;7.208;2022-12-07T12:21:20;0.80;;;0.70;;
4409;SDS011;2218;51.408;7.208;2022-12-07T12:23:56;1.00;;;0.80;;
4409;SDS011;2218;51.408;7.208;2022-12-07T12:26:27;1.20;;;0.80;;
4409;SDS011;2218;51.408;7.208;2022-12-07T12:28:58;1.20;;;0.70;;
4409;SDS011;2218;51.408;7.208;2022-12-07T12:31:35;0.90;;;0.70;;
4409;SDS011;2218;51.408;7.208;2022-12-07T12:37:11;0.70;;;0.50;;
4409;SDS011;2218;51.408;7.208;2022-12-07T12:55:19;1.20;;;0.60;;
4409;SDS011;2218;51.408;7.208;2022-12-07T13:10:43;2.37;;;0.73;;
4409;SDS011;2218;51.408;7.208;2022-12-07T13:13:33;0.93;;;0.80;;
4409;SDS011;2218;51.408;7.208;2022-12-07T13:25:19;0.80;;;0.60;;
4409;SDS011;2218;51.408;7.208;2022-12-07T13:27:59;1.00;;;0.63;;
4409;SDS011;2218;51.408;7.208;2022-12-07T13:30:40;0.77;;;0.60;;
4409;SDS011;2218;51.408;7.208;2022-12-07T13:33:17;0.80;;;0.60;;
4409;SDS011;2218;51.408;7.208;2022-12-07T13:35:45;2.37;;;0.70;;
4409;SDS011;2218;51.408;7.208;2022-12-07T13:38:22;2.37;;;0.77;;
4409;SDS011;2218;51.408;7.208;2022-12-07T13:43:45;0.70;;;0.70;;
4409;SDS011;2218;51.408;7.208;2022-12-07T13:46:16;1.10;;;1.00;;
4409;SDS011;2218;51.408;7.208;2022-12-07T13:48:49;0.70;;;0.60;;
4409;SDS011;2218;51.408;7.208;2022-12-07T13:51:18;0.70;;;0.70;;
4409;SDS011;2218;51.408;7.208;2022-12-07T13:53:49;7.53;;;1.00;;
4409;SDS011;2218;51.408;7.208;2022-12-07T13:56:18;0.80;;;0.70;;
4409;SDS011;2218;51.408;7.208;2022-12-07T13:58:50;0.80;;;0.70;;
4409;SDS011;2218;51.408;7.208;2022-12-07T14:01:19;1.13;;;1.03;;
4409;SDS011;2218;51.408;7.208;2022-12-07T14:03:46;0.73;;;0.70;;
4409;SDS011;2218;51.408;7.208;2022-12-07T14:06:23;0.83;;;0.80;;
4409;SDS011;2218;51.408;7.208;2022-12-07T14:09:06;0.70;;;0.70;;
4409;SDS011;2218;51.408;7.208;2022-12-07T14:11:42;0.70;;;0.60;;
4409;SDS011;2218;51.408;7.208;2022-12-07T14:14:10;1.73;;;0.67;;
4409;SDS011;2218;51.408;7.208;2022-12-07T14:16:54;0.90;;;0.57;;
4409;SDS011;2218;51.408;7.208;2022-12-07T14:19:40;0.70;;;0.60;;
4409;SDS011;2218;51.408;7.208;2022-12-07T14:22:21;0.80;;;0.60;;
4409;SDS011;2218;51.408;7.208;2022-12-07T14:24:59;2.00;;;0.80;;
4409;SDS011;2218;51.408;7.208;2022-12-07T14:27:47;0.80;;;0.70;;
4409;SDS011;2218;51.408;7.208;2022-12-07T14:30:23;0.70;;;0.53;;
4409;SDS011;2218;51.408;7.208;2022-12-07T14:32:55;2.20;;;0.73;;
4409;SDS011;2218;51.408;7.208;2022-12-07T14:35:25;3.90;;;0.70;;
4409;SDS011;2218;51.408;7.208;2022-12-07T14:37:53;0.70;;;0.60;;
4409;SDS011;2218;51.408;7.208;2022-12-07T14:40:21;1.07;;;0.70;;
4409;SDS011;2218;51.408;7.208;2022-12-07T14:42:53;1.60;;;0.73;;
4409;SDS011;2218;51.408;7.208;2022-12-07T14:45:28;0.70;;;0.57;;
4409;SDS011;2218;51.408;7.208;2022-12-07T14:47:57;2.20;;;0.60;;
4409;SDS011;2218;51.408;7.208;2022-12-07T14:50:24;1.70;;;0.70;;
4409;SDS011;2218;51.408;7.208;2022-12-07T14:52:51;0.87;;;0.70;;
4409;SDS011;2218;51.408;7.208;2022-12-07T14:55:23;0.70;;;0.60;;
4409;SDS011;2218;51.408;7.208;2022-12-07T14:57:53;0.87;;;0.60;;
4409;SDS011;2218;51.408;7.208;2022-12-07T15:00:21;1.00;;;0.70;;
4409;SDS011;2218;51.408;7.208;2022-12-07T15:02:51;0.70;;;0.50;;
4409;SDS011;2218;51.408;7.208;2022-12-07T15:05:20;1.77;;;0.70;;
4409;SDS011;2218;51.408;7.208;2022-12-07T15:07:47;0.70;;;0.60;;
4409;SDS011;2218;51.408;7.208;2022-12-07T15:10:16;0.80;;;0.60;;
4409;SDS011;2218;51.408;7.208;2022-12-07T15:12:46;0.93;;;0.63;;
4409;SDS011;2218;51.408;7.208;2022-12-07T15:15:13;2.50;;;0.60;;
4409;SDS011;2218;51.408;7.208;2022-12-07T15:17:40;1.03;;;0.70;;
4409;SDS011;2218;51.408;7.208;2022-12-07T15:20:08;5.33;;;0.70;;
4409;SDS011;2218;51.408;7.208;2022-12-07T15:22:40;0.70;;;0.60;;
4409;SDS011;2218;51.408;7.208;2022-12-07T15:25:08;1.10;;;0.67;;
4409;SDS011;2218;51.408;7.208;2022-12-07T15:27:39;0.80;;;0.70;;
4409;SDS011;2218;51.408;7.208;2022-12-07T15:30:06;0.90;;;0.50;;
4409;SDS011;2218;51.408;7.208;2022-12-07T15:32:34;0.70;;;0.60;;
4409;SDS011;2218;51.408;7.208;2022-12-07T15:35:01;1.37;;;0.70;;
4409;SDS011;2218;51.408;7.208;2022-12-07T15:37:28;0.80;;;0.60;;
4409;SDS011;2218;51.408;7.208;2022-12-07T15:39:56;0.80;;;0.53;;
4409;SDS011;2218;51.408;7.208;2022-12-07T15:42:23;0.90;;;0.60;;
4409;SDS011;2218;51.408;7.208;2022-12-07T15:44:50;3.00;;;0.67;;
4409;SDS011;2218;51.408;7.208;2022-12-07T15:47:31;0.70;;;0.60;;
4409;SDS011;2218;51.408;7.208;2022-12-07T15:50:02;0.70;;;0.50;;
4409;SDS011;2218;51.408;7.208;2022-12-07T15:52:30;1.07;;;0.50;;
4409;SDS011;2218;51.408;7.208;2022-12-07T15:54:58;1.30;;;0.50;;
4409;SDS011;2218;51.408;7.208;2022-12-07T15:57:27;0.70;;;0.50;;
4409;SDS011;2218;51.408;7.208;2022-12-07T15:59:55;0.60;;;0.50;;
4409;SDS011;2218;51.408;7.208;2022-12-07T16:02:22;0.70;;;0.57;;
4409;SDS011;2218;51.408;7.208;2022-12-07T16:04:49;0.70;;;0.50;;
4409;SDS011;2218;51.408;7.208;2022-12-07T16:07:17;1.60;;;0.60;;
4409;SDS011;2218;51.408;7.208;2022-12-07T16:09:44;0.70;;;0.50;;
4409;SDS011;2218;51.408;7.208;2022-12-07T16:12:14;0.70;;;0.43;;
4409;SDS011;2218;51.408;7.208;2022-12-07T16:14:41;0.83;;;0.60;;
4409;SDS011;2218;51.408;7.208;2022-12-07T16:17:09;0.70;;;0.50;;
4409;SDS011;2218;51.408;7.208;2022-12-07T16:19:36;0.70;;;0.60;;
4409;SDS011;2218;51.408;7.208;2022-12-07T16:22:04;0.70;;;0.50;;
4409;SDS011;2218;51.408;7.208;2022-12-07T16:24:31;0.70;;;0.50;;
4409;SDS011;2218;51.408;7.208;2022-12-07T16:26:58;0.70;;;0.50;;
4409;SDS011;2218;51.408;7.208;2022-12-07T16:29:27;0.80;;;0.50;;
4409;SDS011;2218;51.408;7.208;2022-12-07T16:31:54;0.80;;;0.60;;
4409;SDS011;2218;51.408;7.208;2022-12-07T16:34:20;4.50;;;0.50;;
4409;SDS011;2218;51.408;7.208;2022-12-07T16:36:47;0.90;;;0.50;;
4409;SDS011;2218;51.408;7.208;2022-12-07T16:39:14;0.70;;;0.50;;
4409;SDS011;2218;51.408;7.208;2022-12-07T16:41:43;0.70;;;0.57;;
4409;SDS011;2218;51.408;7.208;2022-12-07T16:44:10;0.70;;;0.60;;